• Join FlightAware (Why Join?)
  • Login
  • US Flag 
06:50AM EDT


 

Airport Tracker/Info


-or-


 

Live Flight TrackerFlight Track Log ✈ N677F ✈ 04-Oct-2013 ✈ KBJC - KBJC

Flight Track Log - Related Links

Times and Time Zones

All times are in EDT time to prevent confusion due to time zone crossing. See the N677F flight status page for this flight to view local times or setup timezone preferences in your user account.

Time Position Orientation Groundspeed Altitude Reporting Facility
EDT Latitude Longitude Course Direction KTS MPH feet Rate Location/Type
01:17PM 39.9500 -105.1500 18° North 217 250 8,000  Level Denver TRACON
01:18PM 40.0167 -105.1500 360° North 255 293 10,200 1,800 Climbing Denver TRACON
01:19PM 40.0597 -105.1211 27° Northeast 284 327 10,800 1,560 Climbing Denver Center
01:20PM 40.1347 -105.0400 40° Northeast 345 397 12,700 2,160 Climbing Denver Center
01:21PM 40.2208 -104.9486 39° Northeast 366 421 15,300 2,280 Climbing Denver Center
01:22PM 40.3053 -104.8589 39° Northeast 387 445 17,500 2,160 Climbing Denver Center
01:23PM 39.9088 -105.1172 18° North  Level Estimated
01:23PM 40.3894 -104.7678 39° Northeast 392 451 19,800  Level Denver Center
01:24PM 40.4819 -104.6683 39° Northeast 401 461 21,700 1,560 Climbing Denver Center
01:25PM 40.5714 -104.5719 39° Northeast 414 476 23,100 1,200 Climbing Denver Center
01:26PM 40.6611 -104.4717 40° Northeast 428 493 24,200 900 Climbing Denver Center
01:27PM 40.7650 -104.3833 33° Northeast 445 512 25,000 360 Climbing Denver Center
01:28PM 40.9064 -104.3333 15° North 433 498 25,000  Level Denver Center
01:29PM 41.0067 -104.3053 12° North 382 440 25,000  Level Denver Center
01:30PM 41.0961 -104.2856 North 348 400 25,000  Level Denver Center
01:31PM 41.2000 -104.2556 12° North 341 392 25,000  Level Denver Center
01:32PM 41.2453 -104.1678 56° Northeast 322 371 25,000  Level Denver Center
01:33PM 41.1758 -104.0897 140° Southeast 321 369 25,000  Level Denver Center
01:34PM 41.0922 -104.1150 193° South 318 366 25,000  Level Denver Center
01:35PM 40.9950 -104.1433 192° South 321 369 25,000  Level Denver Center
01:36PM 40.9653 -104.2456 249° West 317 365 25,000  Level Denver Center
01:37PM 41.0500 -104.2994 334° Northwest 340 391 25,000  Level Denver Center
01:38PM 41.1400 -104.2717 13° North 347 399 25,000 -360 Level Denver Center
01:39PM 41.2339 -104.2211 22° Northeast 338 389 24,300 -1,200 Descending Denver Center
01:40PM 41.2281 -104.1175 94° East 318 366 22,600 -1,140 Descending Denver Center
01:41PM 41.1364 -104.1028 173° South 308 354 22,000 -300 Descending Denver Center
01:42PM 41.0547 -104.1250 192° South 313 360 22,000  Level Denver Center
01:43PM 40.9792 -104.1764 207° Southwest 308 354 22,000  Level Denver Center
01:44PM 40.9933 -104.2786 280° West 307 353 22,000  Level Denver Center
01:46PM 41.0933 -104.2864 357° North 320 368 22,000  Level Denver Center
01:47PM 41.1775 -104.2625 12° North 324 373 22,000 -660 Level Denver Center
01:48PM 41.2381 -104.1783 46° Northeast 314 361 20,700 -1,500 Descending Denver Center
01:49PM 41.1836 -104.1094 136° Southeast 306 352 19,000 -840 Descending Denver Center
01:50PM 41.0897 -104.1350 192° South 311 358 19,000  Level Denver Center
01:51PM 41.0114 -104.1606 194° South 305 351 19,000  Level Denver Center
01:52PM 41.0022 -104.2711 264° West 291 335 19,000  Level Denver Center
01:53PM 41.0711 -104.2978 344° North 285 328 19,000  Level Denver Center
01:54PM 41.1592 -104.2678 14° North 289 333 19,000 -480 Level Denver Center
01:55PM 41.2244 -104.2228 27° Northeast 290 334 18,100 -1,320 Descending Denver Center
01:56PM 41.1914 -104.1372 117° Southeast 310 357 16,300 -1,020 Descending Denver Center
01:57PM 41.1028 -104.1567 189° South 286 329 16,000 -180 Descending Denver Center
01:58PM 41.0314 -104.1825 195° South 280 322 16,000  Level Denver Center
01:59PM 41.0225 -104.2742 263° West 250 288 16,000  Level Denver Center
02:00PM 41.0842 -104.2942 346° North 251 289 16,000  Level Denver Center
02:01PM 41.1628 -104.2681 14° North 259 298 16,000 -540 Level Denver Center
02:02PM 41.2217 -104.2253 29° Northeast 261 300 15,000 -1,500 Descending Denver Center
02:03PM 41.1744 -104.1472 129° Southeast 288 331 13,000 -1,020 Descending Denver Center
02:04PM 41.1042 -104.1647 191° South 271 312 13,000  Level Denver Center
02:05PM 41.0350 -104.2089 206° Southwest 261 300 13,000  Level Denver Center
02:06PM 41.0467 -104.2825 282° West 237 273 13,000  Level Denver Center
02:07PM 41.1150 -104.2792 North 226 260 13,000  Level Denver Center
02:08PM 41.1739 -104.2622 12° North 226 260 13,000 -900 Level Denver Center
02:09PM 41.2167 -104.1997 48° Northeast 248 285 11,200 -1,500 Descending Denver Center
02:10PM 41.1511 -104.1683 160° South 299 344 10,000 -600 Descending Denver Center
02:11PM 41.0714 -104.1908 192° South 268 308 10,000  Level Denver Center
02:12PM 41.0483 -104.2644 247° West 268 308 10,000  Level Denver Center
02:13PM 41.1058 -104.2828 346° North 206 237 10,000  Level Denver Center
02:14PM 41.1586 -104.2667 13° North 202 232 10,000 -540 Level Denver Center
02:16PM 41.2106 -104.2267 30° Northeast 215 247 8,900 -1,020 Descending Denver Center
02:17PM 41.1669 -104.1769 139° Southeast 258 297 8,000 -480 Descending Denver Center
02:18PM 41.0914 -104.2006 193° South 249 287 8,000  Level Denver Center
02:19PM 41.0542 -104.2542 227° Southwest 235 270 8,000  Level Denver Center
02:20PM 41.1033 -104.2864 334° Northwest 201 231 8,000  Level Denver Center
02:21PM 41.1558 -104.2708 13° North 200 230 8,000 240 Level Denver Center
02:22PM 41.2117 -104.2364 25° Northeast 203 234 8,600 1,020 Climbing Denver Center
02:23PM 41.1822 -104.1631 118° Southeast 263 303 10,200 1,140 Climbing Denver Center
02:24PM 41.0939 -104.1817 189° South 286 329 11,000 360 Climbing Denver Center
02:25PM 41.0303 -104.2264 208° Southwest 285 328 11,000  Level Denver Center
02:26PM 41.0706 -104.2953 308° West 254 292 11,000  Level Denver Center
02:27PM 41.1361 -104.2756 13° North 248 285 11,000 600 Level Denver Center
02:28PM 41.2100 -104.2511 14° North 246 283 12,300 1,440 Climbing Denver Center
02:29PM 41.2064 -104.1489 93° East 308 354 14,000 780 Climbing Denver Center
02:30PM 41.1069 -104.1589 184° South 331 381 14,000  Level Denver Center
02:31PM 41.0233 -104.1833 192° South 326 375 14,000  Level Denver Center
02:32PM 41.0092 -104.2842 259° West 296 341 14,000  Level Denver Center
02:33PM 41.0844 -104.2883 358° North 295 339 14,000  Level Denver Center
02:34PM 41.1839 -104.2625 11° North 324 373 14,000 720 Level Denver Center
02:35PM 41.2481 -104.1806 44° Northeast 359 413 15,500 1,440 Climbing Denver Center
02:36PM 41.1867 -104.0819 130° Southeast 403 464 17,000 720 Climbing Denver Center
02:37PM 41.0681 -104.1111 191° South 391 450 17,000  Level Denver Center
02:38PM 40.9672 -104.1417 193° South 389 448 17,000  Level Denver Center
02:39PM 40.9531 -104.2669 262° West 376 433 17,000  Level Denver Center
02:40PM 41.0475 -104.3019 344° North 357 411 17,000  Level Denver Center
02:41PM 41.1567 -104.2703 12° North 359 413 17,000 420 Level Denver Center
02:42PM 41.2419 -104.2192 24° Northeast 366 421 17,900 1,440 Climbing Denver Center
02:43PM 41.2211 -104.0739 101° East 403 464 20,000 960 Climbing Denver Center
02:44PM 41.1181 -104.0742 180° South 392 451 20,000  Level Denver Center
02:45PM 40.9972 -104.1067 191° South 398 458 20,000  Level Denver Center
02:47PM 40.9206 -104.2036 224° Southwest 390 449 20,000  Level Denver Center
02:48PM 40.9792 -104.3097 306° West 385 443 20,000  Level Denver Center
02:49PM 41.0847 -104.2897 North 394 453 20,000  Level Denver Center
02:50PM 41.2061 -104.2547 12° North 400 460 20,000 720 Level Denver Center
02:51PM 41.2533 -104.1400 61° Northeast 404 465 21,600 1,440 Climbing Denver Center
02:52PM 41.1547 -104.0622 149° Southeast 417 480 23,000 660 Climbing Denver Center
02:53PM 41.0458 -104.0933 192° South 420 483 23,000  Level Denver Center
02:54PM 40.9328 -104.1528 202° Southwest 415 478 23,000  Level Denver Center
02:55PM 40.9414 -104.2878 275° West 413 475 23,000  Level Denver Center
02:56PM 41.0442 -104.2975 356° North 415 478 23,000  Level Denver Center
02:57PM 41.1700 -104.2656 11° North 412 474 23,000 480 Level Denver Center
02:58PM 41.2594 -104.1947 31° Northeast 408 470 24,100 1,440 Climbing Denver Center
02:59PM 41.2339 -104.0400 102° East 415 478 26,000 900 Climbing Denver Center
03:00PM 41.1233 -104.0292 176° South 432 497 26,000  Level Denver Center
03:01PM 40.9953 -104.0653 192° South 423 487 26,000  Level Denver Center
03:02PM 40.8961 -104.1211 203° Southwest 403 464 26,000  Level Denver Center
03:03PM 40.8900 -104.2581 267° West 409 471 26,000  Level Denver Center
03:04PM 40.9742 -104.3614 317° Northwest 427 491 26,000 540 Level Denver Center
03:05PM 41.1153 -104.3772 355° North 446 513 27,200 1,140 Climbing Denver Center
03:06PM 41.2386 -104.3744 North 462 532 28,400 1,140 Climbing Denver Center
03:07PM 41.3889 -104.3700 North 484 557 29,600 1,020 Climbing Denver Center
03:08PM 41.5203 -104.3656 North 493 567 30,600 1,200 Climbing Denver Center
03:09PM 41.6747 -104.3625 North 497 572 32,100 1,560 Climbing Denver Center
03:10PM 41.8044 -104.3603 North 491 565 33,900 1,560 Climbing Denver Center
03:11PM 41.9556 -104.3564 North 488 562 35,400 1,140 Climbing Denver Center
03:12PM 42.0867 -104.3522 North 493 567 36,300 900 Climbing Denver Center
03:13PM 42.2203 -104.3497 North 501 577 37,300 1,200 Climbing Denver Center
03:14PM 42.3758 -104.3447 North 504 580 38,800 1,260 Climbing Denver Center
03:15PM 42.5281 -104.3408 North 497 572 40,000 540 Climbing Denver Center
03:16PM 42.6575 -104.3375 North 495 570 40,000  Level Denver Center
03:17PM 42.8092 -104.3342 North 493 567 40,000  Level Denver Center
03:18PM 42.9403 -104.3306 North 494 568 40,000  Level Denver Center
03:20PM 43.0928 -104.3264 North 493 567 40,000  Level Denver Center
03:21PM 43.2231 -104.3300 359° North 491 565 40,000  Level Denver Center
03:22PM 43.3289 -104.4225 328° Northwest 477 549 40,000  Level Denver Center
03:23PM 43.3678 -104.5997 287° West 443 510 40,000  Level Denver Center
03:24PM 43.3875 -104.7544 280° West 448 516 40,000  Level Denver Center
03:25PM 43.4986 -104.8728 322° Northwest 470 541 40,000  Level Denver Center
03:26PM 43.6244 -104.8506 North 482 555 40,000  Level Denver Center
03:27PM 43.7167 -104.6950 51° Northeast 477 549 40,000  Level Denver Center
03:28PM 43.7331 -104.5250 82° East 468 539 40,000 -960 Level Denver Center
03:29PM 43.7375 -104.3256 88° East 465 535 38,100 -2,160 Descending Denver Center
03:30PM 43.6914 -104.1747 113° Southeast 448 516 35,600 -2,400 Descending Denver Center
03:31PM 43.6169 -104.0556 131° Southeast 425 489 33,200 -2,580 Descending Denver Center
03:32PM 43.5300 -103.9211 132° Southeast 420 483 30,400 -2,580 Descending Denver Center
03:33PM 43.4544 -103.8039 132° Southeast 423 487 28,000 -2,520 Descending Denver Center
03:34PM 43.3669 -103.6708 132° Southeast 422 486 25,200 -2,580 Descending Denver Center
03:35PM 43.2961 -103.5617 132° Southeast 412 474 22,800 -2,520 Descending Denver Center
03:36PM 43.2167 -103.4417 132° Southeast 394 453 20,100 -1,380 Descending Denver Center
03:37PM 43.1403 -103.3594 142° Southeast 388 447 20,000 -60 Descending Denver Center
03:38PM 43.0447 -103.3183 163° South 384 442 20,000  Level Denver Center
03:39PM 42.9250 -103.3372 187° South 388 447 20,000  Level Denver Center
03:40PM 42.8283 -103.3928 203° Southwest 393 452 20,000  Level Denver Center
03:41PM 42.7150 -103.4544 202° Southwest 392 451 20,000  Level Denver Center
03:42PM 42.6186 -103.5072 202° Southwest 391 450 20,000  Level Denver Center
03:43PM 42.5053 -103.5697 202° Southwest 391 450 20,000  Level Denver Center
03:44PM 42.4061 -103.6219 201° Southwest 397 457 20,000  Level Denver Center
03:45PM 42.3081 -103.6769 203° Southwest 396 456 20,000  Level Denver Center
03:46PM 42.1950 -103.7358 201° Southwest 389 448 20,000  Level Denver Center
03:47PM 42.0961 -103.7892 202° Southwest 396 456 20,000  Level Denver Center
03:48PM 41.9811 -103.8503 202° Southwest 396 456 20,000  Level Denver Center
03:49PM 41.8808 -103.9028 201° Southwest 401 461 20,000  Level Denver Center
03:50PM 41.7814 -103.9556 202° Southwest 401 461 20,000  Level Denver Center
03:51PM 41.6661 -104.0167 202° Southwest 400 460 20,000  Level Denver Center
03:52PM 41.5661 -104.0689 201° Southwest 401 461 20,000  Level Denver Center
03:54PM 41.4514 -104.1281 201° Southwest 397 457 20,000  Level Denver Center
03:55PM 41.3161 -104.2349 211° Southwest  Level FlightAware Approximate
03:56PM 41.2394 -104.2381 211° Southwest 394 453 20,000  Level Denver Center
03:57PM 41.1431 -104.2892 202° Southwest 390 449 20,000  Level Denver Center
03:58PM 41.0303 -104.3464 201° Southwest 389 448 20,000  Level Denver Center
03:59PM 40.9400 -104.3917 201° Southwest 391 450 20,000  Level Denver Center
04:00PM 40.8389 -104.4442 201° Southwest 392 451 20,000  Level Denver Center
04:01PM 40.7178 -104.5075 202° Southwest 396 456 20,000  Level Denver Center
04:02PM 40.6139 -104.5603 201° Southwest 399 459 20,000  Level Denver Center
04:03PM 40.5028 -104.6169 201° Southwest 397 457 20,000 -1,200 Level Denver Center
04:04PM 40.4019 -104.6661 200° South 388 447 17,600 -3,000 Descending Denver Center
04:05PM 40.3081 -104.7161 202° Southwest 366 421 13,900 -2,940 Descending Denver Center
04:06PM 40.2347 -104.7914 218° Southwest 319 367 11,600 -1,860 Descending Denver Center
04:07PM 40.2144 -104.8714 252° West 237 273 10,100 -1,260 Descending Denver Center
04:08PM 40.1522 -104.9261 214° Southwest 249 287 9,000 -600 Descending Denver Center
04:09PM 40.0789 -104.9256 180° South 260 299 8,900 -720 Descending Denver Center
04:10PM 40.0078 -104.9236 179° South 256 295 7,600 -960 Descending Denver Center
04:11PM 39.9314 -104.9183 177° South 255 293 7,000 -300 Descending Denver Center
04:12PM 39.8633 -104.9031 170° South 249 287 7,000  Level Denver Center
04:13PM 39.8281 -104.9408 219° Southwest 188 216 7,000  Level Denver Center
04:14PM 39.8436 -104.9928 291° West 162 186 7,000 -180 Level Denver Center
04:15PM 39.8694 -105.0425 304° West 156 180 6,700 -540 Descending Denver Center
04:16PM 39.8919 -105.0842 305° West 143 165 5,900 -540 Descending Denver Center
04:17PM 39.9108 -105.1208 304° West 121 139 5,600 -300 Descending Denver Center